createdAt,value
2022-10-14T00:02:18.471Z,14.52
2022-10-14T00:04:41.835Z,15.75
2022-10-14T00:07:05.202Z,18.17
2022-10-14T00:09:28.537Z,17.00
2022-10-14T00:11:52.241Z,17.52
2022-10-14T00:14:21.274Z,16.40
2022-10-14T00:16:48.724Z,16.75
2022-10-14T00:19:13.137Z,18.17
2022-10-14T00:21:38.707Z,18.17
2022-10-14T00:24:05.067Z,19.48
2022-10-14T00:26:30.861Z,18.17
2022-10-14T00:28:54.513Z,17.13
2022-10-14T00:31:21.144Z,18.13
2022-10-14T00:33:44.646Z,19.55
2022-10-14T00:36:09.796Z,17.48
2022-10-14T00:38:33.479Z,21.02
2022-10-14T00:40:57.715Z,20.27
2022-10-14T00:43:22.808Z,20.25
2022-10-14T00:45:46.228Z,18.33
2022-10-14T00:48:11.998Z,19.42
2022-10-14T00:50:36.286Z,18.60
2022-10-14T00:53:00.043Z,19.10
2022-10-14T00:55:23.932Z,18.05
2022-10-14T00:57:47.514Z,18.65
2022-10-14T01:00:15.632Z,18.20
2022-10-14T01:02:39.766Z,16.60
2022-10-14T01:05:06.968Z,18.63
2022-10-14T01:07:42.253Z,17.55
2022-10-14T01:10:15.249Z,17.60
2022-10-14T01:12:53.623Z,15.82
2022-10-14T01:15:23.527Z,17.80
2022-10-14T01:17:58.491Z,16.00
2022-10-14T01:21:03.409Z,17.75
2022-10-14T01:24:24.237Z,16.17
2022-10-14T01:27:13.416Z,16.90
2022-10-14T01:30:12.625Z,17.08
2022-10-14T01:32:46.471Z,20.40
2022-10-14T01:35:16.933Z,15.77
2022-10-14T01:37:48.719Z,18.10
2022-10-14T01:40:25.090Z,17.40
2022-10-14T01:42:53.628Z,16.20
2022-10-14T01:45:23.730Z,16.45
2022-10-14T01:47:51.149Z,18.42
2022-10-14T01:50:19.346Z,21.40
2022-10-14T01:52:48.640Z,18.25
2022-10-14T01:55:19.405Z,17.38
2022-10-14T01:57:45.537Z,15.95
2022-10-14T02:00:11.354Z,16.25
2022-10-14T02:02:39.849Z,16.60
2022-10-14T02:05:04.674Z,20.40
2022-10-14T02:07:33.660Z,19.17
2022-10-14T02:10:06.037Z,17.05
2022-10-14T02:12:38.988Z,19.58
2022-10-14T02:15:14.653Z,19.95
2022-10-14T02:17:49.351Z,18.25
2022-10-14T02:20:22.504Z,21.25
2022-10-14T02:22:49.885Z,18.52
2022-10-14T02:25:20.368Z,18.33
2022-10-14T02:27:45.279Z,16.48
2022-10-14T02:30:10.696Z,16.88
2022-10-14T02:32:35.347Z,16.70
2022-10-14T02:35:02.155Z,16.52
2022-10-14T02:37:26.767Z,16.10
2022-10-14T02:39:58.252Z,16.17
2022-10-14T02:42:21.986Z,16.73
2022-10-14T02:44:54.994Z,17.70
2022-10-14T02:47:18.316Z,16.63
2022-10-14T02:49:41.612Z,16.08
2022-10-14T02:52:06.637Z,16.02
2022-10-14T02:54:30.008Z,15.25
2022-10-14T02:56:54.282Z,17.67
2022-10-14T02:59:20.366Z,18.02
2022-10-14T03:01:43.684Z,16.63
2022-10-14T03:04:07.946Z,18.23
2022-10-14T03:06:32.184Z,17.48
2022-10-14T03:08:57.903Z,16.88
2022-10-14T03:11:22.119Z,16.83
2022-10-14T03:13:47.209Z,18.17
2022-10-14T03:16:10.764Z,19.15
2022-10-14T03:18:39.047Z,18.67
2022-10-14T03:21:11.860Z,21.88
2022-10-14T03:23:37.749Z,25.15
2022-10-14T03:26:02.390Z,22.30
2022-10-14T03:28:31.667Z,20.67
2022-10-14T03:31:11.700Z,23.33
2022-10-14T03:33:55.326Z,20.80
2022-10-14T03:36:18.891Z,23.75
2022-10-14T03:38:47.078Z,21.50
2022-10-14T03:41:28.324Z,21.70
2022-10-14T03:43:51.566Z,22.20
2022-10-14T03:46:14.994Z,22.98
2022-10-14T03:48:38.606Z,23.58
2022-10-14T03:51:01.844Z,26.23
2022-10-14T03:53:26.289Z,22.70
2022-10-14T03:55:49.691Z,23.33
2022-10-14T03:58:14.734Z,25.55
2022-10-14T04:00:44.746Z,23.33
2022-10-14T04:03:34.347Z,24.35
2022-10-14T04:05:57.707Z,21.58
2022-10-14T04:08:23.687Z,25.48
2022-10-14T04:10:54.302Z,24.17
2022-10-14T04:13:20.446Z,23.90
2022-10-14T04:15:43.695Z,23.30
2022-10-14T04:18:12.703Z,21.80
2022-10-14T04:20:36.804Z,21.80
2022-10-14T04:23:00.966Z,21.42
2022-10-14T04:25:25.265Z,21.30
2022-10-14T04:27:54.387Z,20.00
2022-10-14T04:30:26.671Z,19.95
2022-10-14T04:32:51.400Z,18.23
2022-10-14T04:35:15.211Z,18.50
2022-10-14T04:37:42.211Z,20.35
2022-10-14T04:40:13.620Z,19.27
2022-10-14T04:42:42.352Z,20.48
2022-10-14T04:45:14.560Z,19.58
2022-10-14T04:47:48.491Z,20.85
2022-10-14T04:50:14.746Z,21.10
2022-10-14T04:52:58.097Z,19.95
2022-10-14T04:55:21.348Z,20.50
2022-10-14T04:57:44.781Z,19.05
2022-10-14T05:00:10.334Z,20.50
2022-10-14T05:02:43.248Z,19.67
2022-10-14T05:05:07.787Z,20.25
2022-10-14T05:07:35.019Z,19.23
2022-10-14T05:10:14.339Z,16.95
2022-10-14T05:12:40.149Z,17.17
2022-10-14T05:15:03.520Z,16.05
2022-10-14T05:17:33.131Z,16.15
2022-10-14T05:19:58.637Z,15.80
2022-10-14T05:22:23.964Z,18.15
2022-10-14T05:24:47.665Z,19.13
2022-10-14T05:27:11.253Z,19.25
2022-10-14T05:29:34.704Z,20.42
2022-10-14T05:31:58.757Z,18.67
2022-10-14T05:34:42.260Z,17.90
2022-10-14T05:37:10.929Z,19.25
2022-10-14T05:39:41.958Z,17.02
2022-10-14T05:42:05.852Z,18.88
2022-10-14T05:44:31.334Z,19.58
2022-10-14T05:46:55.502Z,18.85
2022-10-14T05:49:20.819Z,18.50
2022-10-14T05:51:44.380Z,17.70
2022-10-14T05:54:16.543Z,16.83
2022-10-14T05:56:40.859Z,16.52
2022-10-14T05:59:04.688Z,15.05
2022-10-14T06:01:28.225Z,16.13
2022-10-14T06:03:52.000Z,15.65
2022-10-14T06:06:15.531Z,15.65
2022-10-14T06:08:39.092Z,16.00
2022-10-14T06:11:06.299Z,14.00
2022-10-14T06:13:29.777Z,14.05
2022-10-14T06:15:53.642Z,14.05
2022-10-14T06:18:17.291Z,14.85
2022-10-14T06:20:40.562Z,12.50
2022-10-14T06:23:04.631Z,13.10
2022-10-14T06:25:28.191Z,13.98
2022-10-14T06:27:52.884Z,14.77
2022-10-14T06:30:16.287Z,13.45
2022-10-14T06:32:39.611Z,14.27
2022-10-14T06:35:02.846Z,15.13
2022-10-14T06:37:26.185Z,13.43
2022-10-14T06:39:49.523Z,13.32
2022-10-14T06:42:13.339Z,15.43
2022-10-14T06:44:38.028Z,16.45
2022-10-14T06:47:01.280Z,13.45
2022-10-14T06:49:24.489Z,15.23
2022-10-14T06:51:47.720Z,15.48
2022-10-14T06:54:11.027Z,13.80
2022-10-14T06:56:34.608Z,16.50
2022-10-14T06:58:58.268Z,14.45
2022-10-14T07:01:23.742Z,12.63
2022-10-14T07:03:47.076Z,15.35
2022-10-14T07:06:10.454Z,14.25
2022-10-14T07:08:34.051Z,12.48
2022-10-14T07:10:57.524Z,12.85
2022-10-14T07:13:20.891Z,11.65
2022-10-14T07:15:44.067Z,12.20
2022-10-14T07:18:09.351Z,12.38
2022-10-14T07:20:32.607Z,11.77
2022-10-14T07:22:57.098Z,11.93
2022-10-14T07:25:20.447Z,13.07
2022-10-14T07:27:43.865Z,13.88
2022-10-14T07:30:10.658Z,12.10
2022-10-14T07:32:38.046Z,13.77
2022-10-14T07:35:02.748Z,13.07
2022-10-14T07:37:25.994Z,13.50
2022-10-14T07:39:49.576Z,11.80
2022-10-14T07:42:12.820Z,14.57
2022-10-14T07:44:37.167Z,12.35
2022-10-14T07:47:01.687Z,13.55
2022-10-14T07:49:24.893Z,11.93
2022-10-14T07:51:50.128Z,12.48
2022-10-14T07:54:16.464Z,13.35
2022-10-14T07:56:42.352Z,12.38
2022-10-14T07:59:05.732Z,11.32
2022-10-14T08:01:29.153Z,10.90
2022-10-14T08:03:53.514Z,10.75
2022-10-14T08:06:17.255Z,11.20
2022-10-14T08:08:43.910Z,10.07
2022-10-14T08:11:11.800Z,9.85
2022-10-14T08:13:35.756Z,9.63
2022-10-14T08:15:59.167Z,10.88
2022-10-14T08:18:22.378Z,10.50
2022-10-14T08:20:45.711Z,11.40
2022-10-14T08:23:09.392Z,11.50
2022-10-14T08:25:41.039Z,8.73
2022-10-14T08:28:04.882Z,9.40
2022-10-14T08:30:28.546Z,9.75
2022-10-14T08:32:51.852Z,9.52
2022-10-14T08:35:15.149Z,9.32
2022-10-14T08:37:38.694Z,9.73
2022-10-14T08:40:02.175Z,9.13
2022-10-14T08:42:43.377Z,9.85
2022-10-14T08:45:12.493Z,9.90
2022-10-14T08:47:39.764Z,9.60
2022-10-14T08:50:09.252Z,9.93
2022-10-14T08:52:38.010Z,9.65
2022-10-14T08:55:05.574Z,10.32
2022-10-14T08:57:34.500Z,10.27
2022-10-14T08:59:57.885Z,10.13
2022-10-14T09:02:36.367Z,8.98
2022-10-14T09:05:02.153Z,9.50
2022-10-14T09:07:26.514Z,9.75
2022-10-14T09:09:54.053Z,9.77
2022-10-14T09:12:21.782Z,9.18
2022-10-14T09:14:50.549Z,8.57
2022-10-14T09:17:20.404Z,8.57
2022-10-14T09:19:50.148Z,9.05
2022-10-14T09:22:16.086Z,7.90
2022-10-14T09:24:39.408Z,8.43
2022-10-14T09:27:06.667Z,7.78
2022-10-14T09:29:32.521Z,7.85
2022-10-14T09:32:00.566Z,8.68
2022-10-14T09:34:33.022Z,8.68
2022-10-14T09:36:59.738Z,9.05
2022-10-14T09:39:23.112Z,8.95
2022-10-14T09:41:51.443Z,9.23
2022-10-14T09:44:21.936Z,8.35
2022-10-14T09:46:53.866Z,8.93
2022-10-14T09:49:23.469Z,9.05
2022-10-14T09:51:47.049Z,9.45
2022-10-14T09:54:24.915Z,9.80
2022-10-14T09:56:49.522Z,9.75
2022-10-14T09:59:20.100Z,9.60
2022-10-14T10:01:51.885Z,10.25
2022-10-14T10:04:34.885Z,9.40
2022-10-14T10:06:59.250Z,9.57
2022-10-14T10:09:23.404Z,9.93
2022-10-14T10:11:46.749Z,9.85
2022-10-14T10:14:21.226Z,9.65
2022-10-14T10:16:44.626Z,10.07
2022-10-14T10:19:29.002Z,9.95
2022-10-14T10:21:52.605Z,9.80
2022-10-14T10:24:24.805Z,8.32
2022-10-14T10:26:51.897Z,10.13
2022-10-14T10:29:32.268Z,9.18
2022-10-14T10:32:13.542Z,9.25
2022-10-14T10:35:06.792Z,9.10
2022-10-14T10:37:34.526Z,8.98
2022-10-14T10:40:20.178Z,9.38
2022-10-14T10:42:57.894Z,9.02
2022-10-14T10:45:39.560Z,8.52
2022-10-14T10:48:12.979Z,9.40
2022-10-14T10:50:48.991Z,11.00
2022-10-14T10:53:46.855Z,10.80
2022-10-14T10:56:23.887Z,9.38
2022-10-14T10:59:06.571Z,11.20
2022-10-14T11:01:41.513Z,9.52
2022-10-14T11:04:33.719Z,10.98
2022-10-14T11:07:31.073Z,11.82
2022-10-14T11:10:22.234Z,11.13
2022-10-14T11:12:55.340Z,12.45
2022-10-14T11:15:37.125Z,12.13
2022-10-14T11:18:08.143Z,11.90
2022-10-14T11:20:45.202Z,13.07
2022-10-14T11:23:45.416Z,13.88
2022-10-14T11:26:22.920Z,13.93
2022-10-14T11:28:54.863Z,13.73
2022-10-14T11:31:30.524Z,16.05
2022-10-14T11:34:15.897Z,15.18
2022-10-14T11:36:46.574Z,14.98
2022-10-14T11:39:38.827Z,16.42
2022-10-14T11:42:26.304Z,15.45
2022-10-14T11:45:24.893Z,15.15
2022-10-14T11:47:55.895Z,15.80
2022-10-14T11:50:24.793Z,15.77
2022-10-14T11:52:54.426Z,15.75
2022-10-14T11:55:23.473Z,17.40
2022-10-14T11:57:50.704Z,15.68
2022-10-14T12:00:18.567Z,12.90
2022-10-14T12:02:50.611Z,12.35
2022-10-14T12:05:22.751Z,12.13
2022-10-14T12:08:01.811Z,11.93
2022-10-14T12:10:33.395Z,12.90
2022-10-14T12:12:57.812Z,13.70
2022-10-14T12:15:25.480Z,12.10
2022-10-14T12:17:54.808Z,12.63
2022-10-14T12:20:33.543Z,13.18
2022-10-14T12:22:58.644Z,12.77
2022-10-14T12:25:27.540Z,12.63
2022-10-14T12:27:52.322Z,12.80
2022-10-14T12:30:37.969Z,13.13
2022-10-14T12:33:03.473Z,13.88
2022-10-14T12:35:54.403Z,12.45
2022-10-14T12:38:17.890Z,14.15
2022-10-14T12:40:42.784Z,13.35
2022-10-14T12:43:26.257Z,13.98
2022-10-14T12:46:11.980Z,13.52
2022-10-14T12:48:36.635Z,14.57
2022-10-14T12:51:12.660Z,15.95
2022-10-14T12:53:37.687Z,15.38
2022-10-14T12:56:04.584Z,16.80
2022-10-14T12:58:32.217Z,15.35
2022-10-14T13:01:00.795Z,15.20
2022-10-14T13:03:27.976Z,16.33
2022-10-14T13:05:51.368Z,15.20
2022-10-14T13:08:28.946Z,15.15
2022-10-14T13:11:12.773Z,15.27
2022-10-14T13:14:01.555Z,16.30
2022-10-14T13:16:58.113Z,19.40
2022-10-14T13:19:47.140Z,16.45
2022-10-14T13:22:40.007Z,16.40
2022-10-14T13:25:12.240Z,16.25
2022-10-14T13:27:48.732Z,14.75
2022-10-14T13:30:20.888Z,15.30
2022-10-14T13:32:51.212Z,15.07
2022-10-14T13:35:24.092Z,16.08
2022-10-14T13:37:59.025Z,13.52
2022-10-14T13:40:27.213Z,13.25
2022-10-14T13:42:56.732Z,13.27
2022-10-14T13:45:22.281Z,13.98
2022-10-14T13:47:49.450Z,15.45
2022-10-14T13:50:17.274Z,14.45
2022-10-14T13:52:41.785Z,13.60
2022-10-14T13:55:16.999Z,14.10
2022-10-14T13:58:11.043Z,13.27
2022-10-14T14:00:42.216Z,13.35
2022-10-14T14:03:19.088Z,15.20
2022-10-14T14:05:43.526Z,12.23
2022-10-14T14:08:38.713Z,12.75
2022-10-14T14:11:15.447Z,13.82
2022-10-14T14:13:57.320Z,14.38
2022-10-14T14:16:29.105Z,13.88
2022-10-14T14:19:07.930Z,14.43
2022-10-14T14:21:32.651Z,13.50
2022-10-14T14:23:58.807Z,13.90
2022-10-14T14:26:25.102Z,14.02
2022-10-14T14:28:49.527Z,13.63
2022-10-14T14:31:17.861Z,13.63
2022-10-14T14:33:43.107Z,13.35
2022-10-14T14:36:22.293Z,14.65
2022-10-14T14:38:57.586Z,13.70
2022-10-14T14:41:23.696Z,13.40
2022-10-14T14:44:01.912Z,13.38
2022-10-14T14:46:35.750Z,13.20
2022-10-14T14:49:01.676Z,13.40
2022-10-14T14:51:26.140Z,13.68
2022-10-14T14:53:53.698Z,14.88
2022-10-14T14:56:27.730Z,13.88
2022-10-14T14:58:53.956Z,14.02
2022-10-14T15:01:24.296Z,14.10
2022-10-14T15:04:13.805Z,15.75
2022-10-14T15:06:38.107Z,14.43
2022-10-14T15:09:13.815Z,14.38
2022-10-14T15:11:49.453Z,14.13
2022-10-14T15:14:31.364Z,13.45
2022-10-14T15:16:54.827Z,14.25
2022-10-14T15:19:35.691Z,12.85
2022-10-14T15:22:29.623Z,12.57
2022-10-14T15:25:07.508Z,12.75
2022-10-14T15:27:51.320Z,11.52
2022-10-14T15:30:51.800Z,12.00
2022-10-14T15:33:17.980Z,12.30
2022-10-14T15:35:43.253Z,11.40
2022-10-14T15:38:16.077Z,11.15
2022-10-14T15:40:40.840Z,11.30
2022-10-14T15:43:10.092Z,12.65
2022-10-14T15:45:33.377Z,10.73
2022-10-14T15:48:00.220Z,10.25
2022-10-14T15:50:26.481Z,11.75
2022-10-14T15:52:53.244Z,12.07
2022-10-14T15:55:20.579Z,9.88
2022-10-14T15:57:43.789Z,9.82
2022-10-14T16:00:08.758Z,9.63
2022-10-14T16:02:35.267Z,9.50
2022-10-14T16:07:41.977Z,9.45
2022-10-14T16:10:09.138Z,8.80
2022-10-14T16:12:32.477Z,8.27
2022-10-14T16:14:56.248Z,7.93
2022-10-14T16:17:20.044Z,7.97
2022-10-14T16:19:44.452Z,8.20
2022-10-14T16:22:10.318Z,8.50
2022-10-14T16:24:34.833Z,6.90
2022-10-14T16:27:02.282Z,7.05
2022-10-14T16:29:25.621Z,7.00
2022-10-14T16:31:50.259Z,7.38
2022-10-14T16:34:13.597Z,6.32
2022-10-14T16:36:38.098Z,6.38
2022-10-14T16:39:01.700Z,6.28
2022-10-14T16:41:25.091Z,7.40
2022-10-14T16:43:49.722Z,6.20
2022-10-14T16:46:15.717Z,5.90
2022-10-14T16:48:40.891Z,6.88
2022-10-14T16:51:05.111Z,6.78
2022-10-14T16:53:44.826Z,7.97
2022-10-14T16:56:27.188Z,5.82
2022-10-14T16:58:51.852Z,7.65
2022-10-14T17:01:15.238Z,8.60
2022-10-14T17:03:38.781Z,6.70
2022-10-14T17:06:02.008Z,6.07
2022-10-14T17:08:25.412Z,7.65
2022-10-14T17:10:52.350Z,9.77
2022-10-14T17:13:17.357Z,9.40
2022-10-14T17:15:42.075Z,10.10
2022-10-14T17:18:05.504Z,8.48
2022-10-14T17:20:28.769Z,8.13
2022-10-14T17:22:52.040Z,9.20
2022-10-14T17:25:15.505Z,10.65
2022-10-14T17:27:38.841Z,10.35
2022-10-14T17:30:02.127Z,8.52
2022-10-14T17:32:28.053Z,8.82
2022-10-14T17:34:53.472Z,10.32
2022-10-14T17:37:16.927Z,8.02
2022-10-14T17:39:40.974Z,9.00
2022-10-14T17:42:05.287Z,9.20
2022-10-14T17:44:29.654Z,10.95
2022-10-14T17:46:53.337Z,8.27
2022-10-14T17:49:17.911Z,8.95
2022-10-14T17:51:41.647Z,10.55
2022-10-14T17:54:08.072Z,11.65
2022-10-14T17:56:34.270Z,9.60
2022-10-14T17:58:59.466Z,9.40
2022-10-14T18:01:36.790Z,10.52
2022-10-14T18:04:03.384Z,10.45
2022-10-14T18:06:30.238Z,9.88
2022-10-14T18:08:55.642Z,9.38
2022-10-14T18:11:19.755Z,10.50
2022-10-14T18:13:43.521Z,13.50
2022-10-14T18:16:09.808Z,9.40
2022-10-14T18:18:33.293Z,11.05
2022-10-14T18:20:57.196Z,10.60
2022-10-14T18:23:21.782Z,9.55
2022-10-14T18:25:45.144Z,8.65
2022-10-14T18:28:08.350Z,7.90
2022-10-14T18:30:31.689Z,9.13
2022-10-14T18:32:56.459Z,7.93
2022-10-14T18:35:19.700Z,8.43
2022-10-14T18:37:42.957Z,10.02
2022-10-14T18:40:09.457Z,9.18
2022-10-14T18:42:32.768Z,9.10
2022-10-14T18:44:56.358Z,24.70
2022-10-14T18:47:19.523Z,8.02
2022-10-14T18:49:42.774Z,8.15
2022-10-14T18:52:06.094Z,7.63
2022-10-14T18:54:30.090Z,8.25
2022-10-14T18:56:55.661Z,8.98
2022-10-14T18:59:21.994Z,7.43
2022-10-14T19:01:46.283Z,6.63
2022-10-14T19:04:12.920Z,8.15
2022-10-14T19:06:36.562Z,8.40
2022-10-14T19:09:01.639Z,9.65
2022-10-14T19:11:26.245Z,8.10
2022-10-14T19:13:52.969Z,9.65
2022-10-14T19:16:19.353Z,12.45
2022-10-14T19:18:42.804Z,9.45
2022-10-14T19:21:09.084Z,11.85
2022-10-14T19:23:32.733Z,9.00
2022-10-14T19:25:59.116Z,7.90
2022-10-14T19:28:22.375Z,13.75
2022-10-14T19:30:46.932Z,10.63
2022-10-14T19:33:10.115Z,10.20
2022-10-14T19:35:33.402Z,13.05
2022-10-14T19:37:56.545Z,8.13
2022-10-14T19:40:21.434Z,9.43
2022-10-14T19:42:46.857Z,9.45
2022-10-14T19:45:11.157Z,12.82
2022-10-14T19:47:35.818Z,9.82
2022-10-14T19:49:59.059Z,10.05
2022-10-14T19:52:22.298Z,10.30
2022-10-14T19:54:46.089Z,11.48
2022-10-14T19:57:09.684Z,10.77
2022-10-14T19:59:33.009Z,8.73
2022-10-14T20:01:56.242Z,10.93
2022-10-14T20:04:23.929Z,9.70
2022-10-14T20:06:49.889Z,10.85
2022-10-14T20:09:14.999Z,10.45
2022-10-14T20:11:38.280Z,10.23
2022-10-14T20:14:01.566Z,9.68
2022-10-14T20:16:24.849Z,11.63
2022-10-14T20:18:48.144Z,9.98
2022-10-14T20:21:15.317Z,9.57
2022-10-14T20:23:39.516Z,11.27
2022-10-14T20:26:05.167Z,10.93
2022-10-14T20:28:28.537Z,12.00
2022-10-14T20:30:52.671Z,11.52
2022-10-14T20:33:16.340Z,9.85
2022-10-14T20:35:39.597Z,12.80
2022-10-14T20:38:04.588Z,10.88
2022-10-14T20:40:28.058Z,11.13
2022-10-14T20:42:52.207Z,11.80
2022-10-14T20:45:15.561Z,13.45
2022-10-14T20:47:39.211Z,10.30
2022-10-14T20:50:02.698Z,10.40
2022-10-14T20:52:26.221Z,9.73
2022-10-14T20:54:50.926Z,10.98
2022-10-14T20:57:14.169Z,11.10
2022-10-14T20:59:40.146Z,14.10
2022-10-14T21:02:03.488Z,11.52
2022-10-14T21:04:26.691Z,10.38
2022-10-14T21:06:50.400Z,9.32
2022-10-14T21:09:13.990Z,10.60
2022-10-14T21:11:39.352Z,9.05
2022-10-14T21:14:02.618Z,19.20
2022-10-14T21:16:28.133Z,13.23
2022-10-14T21:18:57.616Z,9.63
2022-10-14T21:21:21.182Z,9.38
2022-10-14T21:23:45.065Z,11.23
2022-10-14T21:26:08.923Z,10.65
2022-10-14T21:28:33.590Z,12.38
2022-10-14T21:30:56.887Z,18.48
2022-10-14T21:33:20.274Z,11.35
2022-10-14T21:35:43.991Z,11.13
2022-10-14T21:38:07.247Z,13.32
2022-10-14T21:40:30.564Z,11.88
2022-10-14T21:42:53.993Z,11.52
2022-10-14T21:45:18.628Z,11.88
2022-10-14T21:47:42.264Z,12.18
2022-10-14T21:50:06.483Z,9.65
2022-10-14T21:52:29.920Z,10.85
2022-10-14T21:54:53.268Z,10.45
2022-10-14T21:57:17.501Z,11.73
2022-10-14T21:59:40.751Z,13.90
2022-10-14T22:02:05.435Z,10.27
2022-10-14T22:04:28.905Z,13.13
2022-10-14T22:06:52.172Z,11.85
2022-10-14T22:09:15.380Z,12.98
2022-10-14T22:11:40.897Z,14.25
2022-10-14T22:14:06.802Z,14.05
2022-10-14T22:16:31.311Z,12.60
2022-10-14T22:18:58.309Z,13.65
2022-10-14T22:21:24.300Z,14.32
2022-10-14T22:23:48.973Z,13.98
2022-10-14T22:26:16.358Z,12.98
2022-10-14T22:28:39.756Z,12.35
2022-10-14T22:31:06.305Z,12.63
2022-10-14T22:33:29.557Z,11.90
2022-10-14T22:35:54.220Z,12.02
2022-10-14T22:38:17.723Z,11.18
2022-10-14T22:40:41.093Z,11.05
2022-10-14T22:43:04.502Z,12.15
2022-10-14T22:45:27.715Z,11.45
2022-10-14T22:47:50.954Z,11.40
2022-10-14T22:50:14.281Z,15.05
2022-10-14T22:52:39.235Z,12.43
2022-10-14T22:55:02.430Z,10.90
2022-10-14T22:57:25.691Z,11.68
2022-10-14T22:59:48.967Z,12.10
2022-10-14T23:02:12.162Z,10.90
2022-10-14T23:04:35.416Z,12.05
2022-10-14T23:07:03.015Z,11.10
2022-10-14T23:09:30.651Z,11.13
2022-10-14T23:11:53.956Z,12.93
2022-10-14T23:14:17.376Z,10.80
2022-10-14T23:16:40.859Z,12.00
2022-10-14T23:19:04.401Z,11.70
2022-10-14T23:21:30.386Z,11.10
2022-10-14T23:23:56.881Z,12.10
2022-10-14T23:26:25.935Z,11.27
2022-10-14T23:28:50.974Z,14.82
2022-10-14T23:31:16.399Z,13.55
2022-10-14T23:33:40.141Z,11.38
2022-10-14T23:36:05.059Z,14.18
2022-10-14T23:38:28.407Z,12.23
2022-10-14T23:40:52.112Z,13.98
2022-10-14T23:43:16.734Z,14.82
2022-10-14T23:45:40.181Z,14.93
2022-10-14T23:48:03.572Z,11.38
2022-10-14T23:50:26.850Z,18.20
2022-10-14T23:52:50.019Z,12.32
2022-10-14T23:55:13.587Z,12.65
2022-10-14T23:57:36.857Z,13.77
